Time;durP1;ratioP1;P1;durP2;ratioP2;P2;SDS_P1;SDS_P2;PMS_P1;PMS_P2;Temp;Humidity;BMP_temperature;BMP_pressure;BME280_temperature;BME280_humidity;BME280_pressure;Samples;Min_cycle;Max_cycle;Signal;HPM_P1;HPM_P2
2022/11/21 00:01:25;;;;;;;22.88;8.25;;;;;;;4.50;100.00;100366.84;5097308;28;20044;-66
2022/11/21 00:03:51;;;;;;;24.80;8.52;;;;;;;4.42;100.00;100367.53;5098013;28;20028;-66
2022/11/21 00:06:17;;;;;;;25.40;8.90;;;;;;;4.36;100.00;100379.59;5097005;28;20077;-66
2022/11/21 00:08:43;;;;;;;25.92;9.25;;;;;;;4.38;100.00;100382.25;5103988;28;20474;-66
2022/11/21 00:11:09;;;;;;;25.67;10.00;;;;;;;4.40;100.00;100391.06;5102381;28;20110;-67
2022/11/21 00:13:35;;;;;;;26.50;10.13;;;;;;;4.35;100.00;100393.56;5102978;28;20193;-66
2022/11/21 00:16:05;;;;;;;27.10;9.88;;;;;;;4.34;100.00;100386.56;5103407;28;20434;-66
2022/11/21 00:18:32;;;;;;;27.77;10.55;;;;;;;4.29;100.00;100384.69;5102499;28;20028;-66
2022/11/21 00:21:04;;;;;;;28.55;10.25;;;;;;;4.29;100.00;100392.53;5103732;28;20023;-66
2022/11/21 00:23:29;;;;;;;27.20;10.70;;;;;;;4.31;100.00;100407.44;5102031;28;20039;-66
2022/11/21 00:25:54;;;;;;;28.38;10.20;;;;;;;4.35;100.00;100392.66;5104304;28;20024;-67
2022/11/21 00:28:19;;;;;;;28.15;10.48;;;;;;;4.43;100.00;100398.97;5100926;28;20475;-66
2022/11/21 00:30:45;;;;;;;30.20;10.15;;;;;;;4.44;100.00;100398.13;5104146;28;20020;-65
2022/11/21 00:33:10;;;;;;;28.08;10.20;;;;;;;4.47;100.00;100402.53;5101971;28;20032;-66
2022/11/21 00:35:35;;;;;;;28.02;10.43;;;;;;;4.40;100.00;100400.63;5102894;28;20020;-66
2022/11/21 00:38:01;;;;;;;27.30;8.50;;;;;;;4.27;100.00;100395.13;5103156;28;20024;-66
2022/11/21 00:40:26;;;;;;;26.88;8.50;;;;;;;4.29;100.00;100392.53;5101624;28;20024;-66
2022/11/21 00:42:51;;;;;;;27.73;8.30;;;;;;;4.23;100.00;100392.41;5104372;28;20069;-66
2022/11/21 00:45:17;;;;;;;27.75;8.93;;;;;;;4.18;100.00;100387.94;5101303;28;20073;-66
2022/11/21 00:47:42;;;;;;;27.92;8.32;;;;;;;4.19;100.00;100387.09;5103780;28;20028;-66
2022/11/21 00:50:09;;;;;;;25.98;8.82;;;;;;;4.24;100.00;100388.91;5102159;28;20069;-66
2022/11/21 00:52:34;;;;;;;24.85;8.27;;;;;;;4.27;100.00;100383.78;5102647;28;20085;-65
2022/11/21 00:55:00;;;;;;;26.30;8.18;;;;;;;4.22;100.00;100396.72;5103356;28;20473;-66
2022/11/21 00:57:25;;;;;;;27.10;8.35;;;;;;;4.17;100.00;100390.53;5100977;28;20051;-66
2022/11/21 00:59:50;;;;;;;29.20;9.00;;;;;;;4.09;100.00;100394.69;5104443;28;20553;-65
2022/11/21 01:02:16;;;;;;;27.38;8.27;;;;;;;4.04;100.00;100391.97;5100843;28;20103;-66
2022/11/21 01:04:41;;;;;;;30.10;8.70;;;;;;;3.98;100.00;100381.38;5103042;28;20024;-66
2022/11/21 01:07:06;;;;;;;28.90;8.95;;;;;;;3.92;100.00;100381.22;5102552;28;20035;-66
2022/11/21 01:09:32;;;;;;;27.40;8.90;;;;;;;3.81;100.00;100384.44;5104595;28;20040;-66
2022/11/21 01:11:57;;;;;;;25.08;8.68;;;;;;;3.79;100.00;100382.66;5107131;28;20101;-66
2022/11/21 01:14:23;;;;;;;26.67;8.40;;;;;;;3.76;100.00;100387.81;5103321;28;20119;-68
2022/11/21 01:16:48;;;;;;;26.52;8.70;;;;;;;3.79;100.00;100380.91;5107722;28;20116;-66
2022/11/21 01:19:13;;;;;;;27.83;8.98;;;;;;;3.86;100.00;100391.50;5104689;28;20039;-66
2022/11/21 01:21:39;;;;;;;30.02;9.30;;;;;;;3.87;100.00;100388.06;5106640;28;20077;-66
2022/11/21 01:24:04;;;;;;;29.65;9.38;;;;;;;3.83;100.00;100390.59;5105829;28;20031;-66
2022/11/21 01:26:31;;;;;;;26.70;9.35;;;;;;;3.77;100.00;100386.94;5105251;28;20028;-65
2022/11/21 01:28:57;;;;;;;28.75;9.70;;;;;;;3.72;100.00;100386.84;5106661;28;20028;-67
2022/11/21 01:31:28;;;;;;;27.25;10.07;;;;;;;3.69;100.00;100391.13;5102686;28;20494;-74
2022/11/21 01:33:53;;;;;;;30.25;10.57;;;;;;;3.69;100.00;100398.97;5106065;28;20077;-73
2022/11/21 01:36:22;;;;;;;28.25;10.38;;;;;;;3.70;100.00;100400.72;5104018;28;20024;-75
2022/11/21 01:38:52;;;;;;;28.60;10.48;;;;;;;3.65;100.00;100390.13;5107267;28;20416;-75
2022/11/21 01:41:20;;;;;;;28.70;10.48;;;;;;;3.59;100.00;100388.25;5099515;28;20077;-76
2022/11/21 01:43:49;;;;;;;28.23;10.88;;;;;;;3.54;100.00;100379.44;5107110;28;20031;-76
2022/11/21 01:46:17;;;;;;;28.48;10.57;;;;;;;3.46;100.00;100389.66;5104022;28;20417;-76
2022/11/21 01:48:45;;;;;;;25.88;9.75;;;;;;;3.40;100.00;100386.03;5106687;28;20567;-75
2022/11/21 01:51:19;;;;;;;27.90;10.00;;;;;;;3.41;100.00;100377.34;5104639;28;20035;-72
2022/11/21 01:53:52;;;;;;;27.63;10.38;;;;;;;3.38;100.00;100382.47;5106885;28;20034;-75
2022/11/21 01:56:18;;;;;;;28.98;11.15;;;;;;;3.28;100.00;100387.47;5103513;28;20081;-74
2022/11/21 01:58:46;;;;;;;31.20;11.55;;;;;;;3.31;100.00;100382.31;5106133;28;20397;-74
2022/11/21 02:01:11;;;;;;;31.42;12.00;;;;;;;3.23;100.00;100377.72;5104469;27;20015;-73
2022/11/21 02:03:40;;;;;;;30.20;12.20;;;;;;;3.13;100.00;100382.72;5105180;28;20414;-75
2022/11/21 02:06:08;;;;;;;28.75;11.80;;;;;;;3.02;100.00;100386.75;5105035;28;20149;-73
2022/11/21 02:08:35;;;;;;;35.65;13.15;;;;;;;2.99;100.00;100393.63;5105134;28;20032;-75
2022/11/21 02:11:00;;;;;;;42.67;20.20;;;;;;;3.00;100.00;100391.06;5105568;28;20024;-75
2022/11/21 02:13:26;;;;;;;49.63;22.05;;;;;;;2.98;100.00;100390.13;5103798;28;20028;-74
2022/11/21 02:15:53;;;;;;;52.42;24.13;;;;;;;2.95;100.00;100395.25;5106717;28;20030;-76
2022/11/21 02:18:18;;;;;;;51.75;21.30;;;;;;;2.86;100.00;100405.44;5098863;28;20467;-74
2022/11/21 02:20:48;;;;;;;47.28;23.42;;;;;;;2.77;100.00;100399.13;5105321;28;20039;-76
2022/11/21 02:23:37;;;;;;;51.55;24.60;;;;;;;2.74;100.00;100409.47;5103679;28;20068;-73
2022/11/21 02:26:03;;;;;;;86.22;35.80;;;;;;;2.74;100.00;100414.69;5101038;28;20020;-74
2022/11/21 02:28:28;;;;;;;84.60;36.60;;;;;;;2.84;100.00;100404.50;5105783;28;20103;-75
2022/11/21 02:30:53;;;;;;;78.47;35.42;;;;;;;2.90;100.00;100409.94;5102766;28;20036;-73
2022/11/21 02:33:19;;;;;;;102.28;36.78;;;;;;;2.92;100.00;100401.28;5106386;28;20031;-73
2022/11/21 02:36:03;;;;;;;245.57;46.58;;;;;;;2.88;100.00;100406.38;5103217;28;20463;-76
2022/11/21 02:38:33;;;;;;;162.13;44.88;;;;;;;2.86;100.00;100405.44;5100613;28;20028;-75
2022/11/21 02:41:25;;;;;;;111.97;41.22;;;;;;;2.88;100.00;100395.91;5105148;28;20032;-75
2022/11/21 02:43:57;;;;;;;82.68;41.55;;;;;;;2.87;100.00;100400.28;5098639;28;20023;-76
2022/11/21 02:46:24;;;;;;;;;;;;;;;2.90;100.00;100409.94;5099401;28;20027;-73
2022/11/21 02:48:49;;;;;;;101.97;42.40;;;;;;;2.91;100.00;100411.66;5098613;28;19919;-75
2022/11/21 02:51:15;;;;;;;83.10;42.13;;;;;;;2.97;100.00;100417.97;5105616;28;20412;-76
2022/11/21 02:53:40;;;;;;;83.53;42.30;;;;;;;3.00;100.00;100411.94;5103425;28;20032;-74
2022/11/21 02:56:05;;;;;;;93.53;43.65;;;;;;;3.00;100.00;100411.94;5104115;28;20028;-73
2022/11/21 02:58:31;;;;;;;106.90;45.22;;;;;;;2.96;100.00;100410.09;5104460;28;20380;-75
2022/11/21 03:00:56;;;;;;;108.15;44.30;;;;;;;2.95;100.00;100413.53;5102837;28;20040;-73
2022/11/21 03:03:22;;;;;;;124.05;45.35;;;;;;;2.91;100.00;100409.97;5105626;28;20402;-74
2022/11/21 03:05:47;;;;;;;128.07;47.38;;;;;;;2.88;100.00;100412.47;5102208;28;20391;-74
2022/11/21 03:08:13;;;;;;;114.60;44.53;;;;;;;2.91;100.00;100406.44;5104787;28;20039;-73
2022/11/21 03:10:38;;;;;;;115.50;44.75;;;;;;;2.90;100.00;100396.88;5103506;28;20398;-76
2022/11/21 03:13:03;;;;;;;123.93;47.50;;;;;;;2.89;100.00;100408.16;5102153;28;20502;-75
2022/11/21 03:15:31;;;;;;;141.50;46.67;;;;;;;2.87;100.00;100404.59;5105207;28;20038;-67
2022/11/21 03:17:57;;;;;;;182.35;47.38;;;;;;;2.85;100.00;100401.06;5102307;28;20078;-66
2022/11/21 03:20:23;;;;;;;183.18;47.10;;;;;;;2.76;100.00;100386.88;5105368;28;20424;-66
2022/11/21 03:22:49;;;;;;;201.48;49.55;;;;;;;2.77;100.00;100396.50;5102031;28;20380;-66
2022/11/21 03:25:14;;;;;;;165.48;47.90;;;;;;;2.83;100.00;100392.31;5104714;28;20142;-67
2022/11/21 03:27:40;;;;;;;162.00;46.60;;;;;;;2.77;100.00;100391.28;5102913;28;20533;-66
2022/11/21 03:30:06;;;;;;;205.07;50.40;;;;;;;2.80;100.00;100385.28;5103406;28;20032;-66
2022/11/21 03:32:31;;;;;;;146.05;45.85;;;;;;;2.76;100.00;100383.41;5103297;28;20485;-66
2022/11/21 03:34:56;;;;;;;172.68;48.80;;;;;;;2.69;100.00;100392.78;5101963;28;20028;-65
2022/11/21 03:37:22;;;;;;;163.05;47.15;;;;;;;2.60;100.00;100382.06;5105478;28;20046;-66
2022/11/21 03:39:47;;;;;;;185.38;49.28;;;;;;;2.59;100.00;100388.13;5102060;28;20072;-66
2022/11/21 03:42:12;;;;;;;155.40;47.00;;;;;;;2.61;100.00;100383.84;5102692;28;20032;-69
2022/11/21 03:44:38;;;;;;;119.78;45.13;;;;;;;2.68;100.00;100383.19;5103288;28;20039;-67
2022/11/21 03:47:03;;;;;;;189.63;46.85;;;;;;;2.69;100.00;100387.56;5102755;28;20028;-66
2022/11/21 03:49:28;;;;;;;151.82;46.42;;;;;;;2.71;100.00;100388.50;5104296;28;20027;-65
2022/11/21 03:51:54;;;;;;;213.00;48.60;;;;;;;2.69;100.00;100390.16;5101435;28;20028;-66
2022/11/21 03:54:19;;;;;;;306.63;54.38;;;;;;;2.68;100.00;100393.63;5095974;28;20092;-67
2022/11/21 03:56:44;;;;;;;274.67;55.45;;;;;;;2.69;100.00;100390.16;5104381;28;20031;-66
2022/11/21 03:59:10;;;;;;;312.38;53.05;;;;;;;2.68;100.00;100387.50;5102433;28;20116;-66
2022/11/21 04:01:35;;;;;;;201.55;46.50;;;;;;;2.74;100.00;100390.31;5102701;28;20039;-76
2022/11/21 04:04:00;;;;;;;275.63;49.03;;;;;;;2.73;100.00;100399.84;5104048;28;20133;-74
2022/11/21 04:06:26;;;;;;;178.90;47.10;;;;;;;2.73;100.00;100414.66;5101449;28;20034;-74
2022/11/21 04:08:51;;;;;;;297.08;52.28;;;;;;;2.72;100.00;100405.03;5104576;28;20170;-73
2022/11/21 04:11:17;;;;;;;253.00;50.80;;;;;;;2.74;100.00;100404.25;5101740;28;20031;-74
2022/11/21 04:13:43;;;;;;;365.35;57.60;;;;;;;2.74;100.00;100392.94;5103746;28;20391;-75
2022/11/21 04:16:08;;;;;;;379.95;59.28;;;;;;;2.77;100.00;100400.84;5102670;28;20028;-75
2022/11/21 04:18:35;;;;;;;187.68;48.35;;;;;;;2.80;100.00;100393.09;5102586;28;20035;-75
2022/11/21 04:21:02;;;;;;;289.10;53.67;;;;;;;2.83;100.00;100398.41;5103653;28;20102;-74
2022/11/21 04:23:28;;;;;;;168.32;46.45;;;;;;;2.84;100.00;100396.66;5101551;28;20035;-74
2022/11/21 04:25:53;;;;;;;291.15;51.95;;;;;;;2.82;100.00;100391.41;5104683;28;20027;-75
2022/11/21 04:28:19;;;;;;;199.98;48.70;;;;;;;2.83;100.00;100387.97;5101088;28;20032;-77
2022/11/21 04:30:44;;;;;;;167.85;48.00;;;;;;;2.87;100.00;100381.09;5103931;28;20469;-75
2022/11/21 04:33:10;;;;;;;140.02;43.90;;;;;;;2.85;100.00;100373.22;5102255;28;20409;-76
2022/11/21 04:35:36;;;;;;;155.02;46.00;;;;;;;2.86;100.00;100367.16;5102492;28;20032;-76
2022/11/21 04:38:01;;;;;;;178.13;48.05;;;;;;;2.84;100.00;100360.13;5103617;28;20024;-71
2022/11/21 04:40:26;;;;;;;195.27;48.30;;;;;;;2.77;100.00;100359.97;5101179;28;20510;-74
2022/11/21 04:42:52;;;;;;;186.05;46.50;;;;;;;2.76;100.00;100355.56;5103168;28;20052;-74
2022/11/21 04:45:17;;;;;;;244.45;51.92;;;;;;;2.74;100.00;100354.66;5105338;28;20032;-76
2022/11/21 04:47:44;;;;;;;238.68;51.08;;;;;;;2.69;100.00;100353.63;5107282;28;20028;-76
2022/11/21 04:50:12;;;;;;;125.20;43.22;;;;;;;2.70;100.00;100357.13;5106240;27;20046;-74
2022/11/21 04:52:37;;;;;;;277.83;54.13;;;;;;;2.62;100.00;100362.13;5106640;28;20108;-76
2022/11/21 04:55:03;;;;;;;157.98;46.13;;;;;;;2.61;100.00;100355.16;5106996;28;20526;-66
2022/11/21 04:57:30;;;;;;;234.98;50.75;;;;;;;2.64;100.00;100352.63;5104799;28;20040;-66
2022/11/21 04:59:55;;;;;;;210.70;50.13;;;;;;;2.63;100.00;100347.38;5108395;28;20067;-68
2022/11/21 05:02:21;;;;;;;180.13;48.03;;;;;;;2.59;100.00;100351.59;5104621;28;20574;-66
2022/11/21 05:04:46;;;;;;;245.48;50.70;;;;;;;2.58;100.00;100342.00;5107388;28;20024;-67
2022/11/21 05:07:12;;;;;;;340.05;56.42;;;;;;;2.58;100.00;100342.00;5104431;28;20370;-66
2022/11/21 05:09:37;;;;;;;183.98;47.72;;;;;;;2.56;100.00;100356.72;5105988;28;20092;-66
2022/11/21 05:14:47;;;;;;;233.80;51.88;;;;;;;2.54;100.00;100343.63;5107842;28;20030;-68
2022/11/21 05:17:12;;;;;;;246.13;51.70;;;;;;;2.57;100.00;100332.41;5105534;28;20457;-67
2022/11/21 05:19:38;;;;;;;304.35;54.90;;;;;;;2.51;100.00;100333.09;5105950;28;20073;-66
2022/11/21 05:22:03;;;;;;;297.67;52.90;;;;;;;2.50;100.00;100340.91;5106704;27;20485;-67
2022/11/21 05:24:28;;;;;;;360.45;56.42;;;;;;;2.51;100.00;100333.09;5104617;28;20028;-66
2022/11/21 05:26:54;;;;;;;351.23;55.53;;;;;;;2.49;100.00;100326.06;5107538;28;20103;-66
2022/11/21 05:29:20;;;;;;;170.38;46.25;;;;;;;2.58;100.00;100327.22;5104231;28;20071;-66
2022/11/21 05:31:45;;;;;;;218.73;47.90;;;;;;;2.60;100.00;100324.66;5106937;28;20035;-66
2022/11/21 05:34:10;;;;;;;261.77;49.67;;;;;;;2.58;100.00;100310.69;5105174;28;20031;-66
2022/11/21 05:36:36;;;;;;;274.65;52.40;;;;;;;2.52;100.00;100310.50;5105562;28;20390;-66
2022/11/21 05:39:01;;;;;;;180.77;46.33;;;;;;;2.54;100.00;100316.66;5106541;28;20024;-66
2022/11/21 05:41:26;;;;;;;187.75;46.40;;;;;;;2.53;100.00;100313.16;5103891;28;20035;-67
2022/11/21 05:43:52;;;;;;;349.00;56.03;;;;;;;2.50;100.00;100307.84;5107406;28;20035;-67
2022/11/21 05:46:20;;;;;;;329.13;53.58;;;;;;;2.56;100.00;100304.53;5104083;28;20032;-67
2022/11/21 05:48:47;;;;;;;304.25;53.30;;;;;;;2.61;100.00;100313.38;5106347;28;20162;-66
2022/11/21 05:51:13;;;;;;;275.00;50.15;;;;;;;2.66;100.00;100317.00;5105215;28;20405;-66
2022/11/21 05:53:39;;;;;;;251.85;50.60;;;;;;;2.69;100.00;100318.81;5105374;28;20035;-66
2022/11/21 05:56:09;;;;;;;249.95;51.58;;;;;;;2.73;100.00;100328.50;5105064;28;20111;-66
2022/11/21 05:58:35;;;;;;;333.98;56.15;;;;;;;2.70;100.00;100316.25;5104710;28;20165;-66
2022/11/21 06:01:01;;;;;;;239.10;48.53;;;;;;;2.67;100.00;100305.72;5106241;28;20110;-66
2022/11/21 06:03:31;;;;;;;277.88;49.40;;;;;;;2.63;100.00;100298.66;5103416;28;20023;-67
2022/11/21 06:06:03;;;;;;;260.58;50.97;;;;;;;2.57;100.00;100298.47;5106824;28;20023;-68
2022/11/21 06:08:40;;;;;;;145.63;42.72;;;;;;;2.61;100.00;100297.72;5103681;28;20028;-66
2022/11/21 06:11:07;;;;;;;183.55;44.95;;;;;;;2.65;100.00;100315.25;5105385;28;20073;-66
2022/11/21 06:13:32;;;;;;;160.77;46.22;;;;;;;2.63;100.00;100309.09;5104137;28;20024;-67
2022/11/21 06:16:01;;;;;;;101.45;42.70;;;;;;;2.68;100.00;100303.97;5106400;28;20501;-66
2022/11/21 06:18:29;;;;;;;79.47;40.08;;;;;;;2.77;100.00;100305.13;5103071;28;20036;-66
2022/11/21 06:21:00;;;;;;;85.13;41.65;;;;;;;2.86;100.00;100298.41;5106530;28;20023;-66
2022/11/21 06:23:25;;;;;;;84.38;42.45;;;;;;;2.91;100.00;100286.34;5099718;28;20024;-66
2022/11/21 06:25:56;;;;;;;84.07;40.75;;;;;;;2.95;100.00;100291.69;5098718;28;20486;-66
2022/11/21 06:28:21;;;;;;;88.65;40.00;;;;;;;3.02;100.00;100279.69;5098622;28;20027;-66
2022/11/21 06:30:50;;;;;;;80.78;40.03;;;;;;;3.10;100.00;100280.78;5105887;28;20028;-67
2022/11/21 06:33:16;;;;;;;82.85;39.70;;;;;;;3.12;100.00;100270.34;5103391;28;20028;-66
2022/11/21 06:35:42;;;;;;;85.03;39.17;;;;;;;3.13;100.00;100275.63;5104860;28;20032;-66
2022/11/21 06:38:07;;;;;;;80.25;38.88;;;;;;;3.17;100.00;100267.84;5104746;28;20535;-67
2022/11/21 06:40:33;;;;;;;90.85;39.47;;;;;;;3.20;100.00;100270.53;5103478;28;20032;-66
2022/11/21 06:42:59;;;;;;;85.47;39.10;;;;;;;3.20;100.00;100273.16;5105739;28;20043;-66
2022/11/21 06:45:24;;;;;;;86.40;38.67;;;;;;;3.20;100.00;100276.63;5102705;28;20031;-76
2022/11/21 06:47:49;;;;;;;83.90;39.42;;;;;;;3.18;100.00;100275.72;5104447;28;20126;-76
2022/11/21 06:50:15;;;;;;;87.45;39.30;;;;;;;3.19;100.00;100269.66;5103174;28;20041;-76
2022/11/21 06:52:40;;;;;;;90.57;38.88;;;;;;;3.22;100.00;100274.06;5104476;28;20038;-75
2022/11/21 06:55:07;;;;;;;92.90;40.22;;;;;;;3.24;100.00;100275.88;5103526;28;20111;-75
2022/11/21 06:57:32;;;;;;;92.13;39.30;;;;;;;3.25;100.00;100261.09;5102850;28;20044;-75
2022/11/21 06:59:58;;;;;;;83.88;38.25;;;;;;;3.29;100.00;100265.53;5105818;27;20028;-76
2022/11/21 07:02:23;;;;;;;85.45;39.80;;;;;;;3.31;100.00;100261.25;5102453;28;20173;-76
2022/11/21 07:04:48;;;;;;;88.25;39.05;;;;;;;3.31;100.00;100267.34;5105280;28;20096;-74
2022/11/21 07:07:14;;;;;;;93.97;40.47;;;;;;;3.29;100.00;100263.81;5103665;28;20040;-77
2022/11/21 07:09:39;;;;;;;83.60;38.60;;;;;;;3.29;100.00;100260.31;5103807;28;20032;-76
2022/11/21 07:14:49;;;;;;;85.82;38.22;;;;;;;3.30;100.00;100259.47;5105525;28;20168;-74
2022/11/21 07:17:14;;;;;;;88.75;39.53;;;;;;;3.27;100.00;100254.19;5099631;28;20107;-68
2022/11/21 07:19:40;;;;;;;79.38;37.88;;;;;;;3.28;100.00;100255.94;5098459;28;20107;-68
2022/11/21 07:22:07;;;;;;;87.15;37.72;;;;;;;3.30;100.00;100247.28;5099955;28;20028;-67
2022/11/21 07:24:32;;;;;;;82.65;38.63;;;;;;;3.31;100.00;100250.78;5099988;28;20062;-65
2022/11/21 07:26:58;;;;;;;80.68;36.15;;;;;;;3.31;100.00;100259.50;5098759;28;20059;-68
2022/11/21 07:29:23;;;;;;;72.68;35.60;;;;;;;3.32;100.00;100249.97;5094722;28;20486;-67
2022/11/21 07:31:49;;;;;;;76.07;36.50;;;;;;;3.29;100.00;100248.16;5099952;28;20036;-66
2022/11/21 07:34:14;;;;;;;80.70;36.28;;;;;;;3.30;100.00;100252.50;5098372;28;20038;-66
2022/11/21 07:36:39;;;;;;;72.47;34.92;;;;;;;3.32;100.00;100257.81;5097036;28;20020;-69
2022/11/21 07:39:05;;;;;;;76.00;35.60;;;;;;;3.35;100.00;100255.25;5096770;28;20071;-68
2022/11/21 07:41:31;;;;;;;71.22;34.25;;;;;;;3.41;100.00;100254.53;5097889;28;20055;-66
2022/11/21 07:43:56;;;;;;;66.30;32.72;;;;;;;3.44;100.00;100263.31;5101343;28;20032;-65
2022/11/21 07:46:22;;;;;;;62.55;31.20;;;;;;;3.48;100.00;100257.31;5098377;28;20028;-65
2022/11/21 07:48:47;;;;;;;68.13;32.50;;;;;;;3.52;100.00;100254.78;5078504;28;20113;-67
2022/11/21 07:51:12;;;;;;;62.28;31.15;;;;;;;3.53;100.00;100254.81;5097325;28;20114;-72
2022/11/21 07:53:38;;;;;;;64.97;31.42;;;;;;;3.52;100.00;100255.63;5099031;28;20035;-70
2022/11/21 07:56:03;;;;;;;54.90;28.42;;;;;;;3.56;100.00;100252.25;5095927;28;20097;-70
2022/11/21 07:58:29;;;;;;;57.65;28.38;;;;;;;3.61;100.00;100249.75;5097848;28;20053;-69
2022/11/21 08:00:54;;;;;;;57.13;28.20;;;;;;;3.63;100.00;100245.47;5095077;28;20039;-70
2022/11/21 08:03:21;;;;;;;50.83;26.92;;;;;;;3.64;100.00;100240.25;5095543;28;20028;-69
2022/11/21 08:05:46;;;;;;;50.53;27.02;;;;;;;3.64;100.00;100241.97;5098971;28;20383;-71
2022/11/21 08:08:12;;;;;;;51.67;25.77;;;;;;;3.63;100.00;100237.59;5097693;28;20034;-71
2022/11/21 08:10:39;;;;;;;48.40;25.20;;;;;;;3.60;100.00;100230.56;5098294;28;20016;-71
2022/11/21 08:13:05;;;;;;;51.22;26.08;;;;;;;3.57;100.00;100232.22;5097310;28;20027;-71
2022/11/21 08:15:30;;;;;;;47.75;25.45;;;;;;;3.52;100.00;100233.88;5096075;28;20027;-71
2022/11/21 08:17:55;;;;;;;53.55;26.45;;;;;;;3.57;100.00;100233.13;5098721;28;20024;-71
2022/11/21 08:20:21;;;;;;;45.08;23.58;;;;;;;3.71;100.00;100233.41;5098225;28;20028;-72
2022/11/21 08:22:46;;;;;;;48.15;24.85;;;;;;;3.88;100.00;100227.69;5099324;28;20032;-72
2022/11/21 08:25:11;;;;;;;53.70;25.08;;;;;;;4.00;100.00;100223.63;5101431;28;20471;-72
2022/11/21 08:27:38;;;;;;;45.22;23.58;;;;;;;4.08;100.00;100226.38;5102425;28;20527;-73
2022/11/21 08:30:08;;;;;;;44.70;21.90;;;;;;;4.08;100.00;100221.16;5100086;27;20502;-73
2022/11/21 08:32:34;;;;;;;41.70;21.38;;;;;;;4.06;100.00;100211.50;5099382;28;20032;-72
2022/11/21 08:34:59;;;;;;;41.55;21.75;;;;;;;4.14;100.00;100200.34;5098942;28;20115;-78
2022/11/21 08:37:26;;;;;;;42.63;21.90;;;;;;;4.25;100.00;100197.97;5101258;28;20024;-73
2022/11/21 08:39:52;;;;;;;42.67;22.00;;;;;;;4.33;100.00;100196.34;5104016;28;20019;-73
2022/11/21 08:42:17;;;;;;;42.38;21.45;;;;;;;4.43;100.00;100194.81;5100872;28;20126;-76
2022/11/21 08:44:43;;;;;;;41.00;21.23;;;;;;;4.42;100.00;100193.03;5097382;28;20463;-73
2022/11/21 08:47:08;;;;;;;37.85;18.92;;;;;;;4.37;100.00;100181.63;5101602;28;20579;-75
2022/11/21 08:49:34;;;;;;;38.85;19.95;;;;;;;4.31;100.00;100189.31;5102171;28;20363;-74
2022/11/21 08:52:00;;;;;;;36.42;18.58;;;;;;;4.32;100.00;100193.72;5099978;28;20394;-76
2022/11/21 08:54:25;;;;;;;34.05;17.73;;;;;;;4.43;100.00;100201.78;5102690;28;20027;-77
2022/11/21 08:56:50;;;;;;;35.03;18.10;;;;;;;4.47;100.00;100191.41;5103705;28;20089;-70
2022/11/21 08:59:17;;;;;;;34.80;18.23;;;;;;;4.54;100.00;100182.81;5099746;28;20043;-77
2022/11/21 09:01:42;;;;;;;34.50;17.00;;;;;;;4.63;100.00;100183.81;5099648;28;20036;-77
2022/11/21 09:04:08;;;;;;;33.38;16.17;;;;;;;4.84;100.00;100184.19;5098716;28;20034;-77
2022/11/21 09:06:34;;;;;;;34.13;16.73;;;;;;;4.82;100.00;100185.91;5102892;28;20036;-77
2022/11/21 09:09:00;;;;;;;30.65;15.48;;;;;;;4.95;100.00;100175.63;5099211;28;20401;-75
2022/11/21 09:11:26;;;;;;;31.23;14.55;;;;;;;4.92;100.00;100173.84;5106614;28;20031;-77
2022/11/21 09:19:21;;;;;;;26.25;11.32;;;;;;;5.02;100.00;100167.00;5104451;28;20051;-77
2022/11/21 09:21:50;;;;;;;26.92;11.50;;;;;;;5.21;100.00;100163.84;5105347;28;20028;-73
2022/11/21 09:24:16;;;;;;;24.95;10.27;;;;;;;5.10;100.00;100164.50;5105068;28;20493;-75
2022/11/21 09:26:42;;;;;;;26.23;10.55;;;;;;;5.09;100.00;100163.63;5107507;28;20024;-78
2022/11/21 09:29:09;;;;;;;23.70;10.23;;;;;;;5.31;100.00;100162.22;5103524;28;20044;-75
2022/11/21 09:31:36;;;;;;;24.13;9.15;;;;;;;5.37;100.00;100154.47;5098989;28;20024;-74
2022/11/21 09:34:01;;;;;;;24.90;9.48;;;;;;;5.51;100.00;100157.28;5107208;28;20028;-71
2022/11/21 09:36:26;;;;;;;23.33;8.98;;;;;;;5.51;100.00;100145.91;5104945;28;20020;-73
2022/11/21 09:38:52;;;;;;;20.55;7.82;;;;;;;5.62;100.00;100135.56;5105528;28;20017;-74
2022/11/21 09:41:52;;;;;;;23.15;8.30;;;;;;;5.64;100.00;100137.34;5106382;28;20039;-72
2022/11/21 09:44:38;;;;;;;23.17;8.13;;;;;;;5.66;100.00;100134.75;5102372;28;20035;-68
2022/11/21 09:47:19;;;;;;;22.60;8.15;;;;;;;5.87;100.00;100137.66;5103802;28;20441;-65
2022/11/21 09:49:50;;;;;;;23.27;7.82;;;;;;;6.06;100.00;100146.66;5096480;28;20070;-69
2022/11/21 09:52:19;;;;;;;22.75;7.40;;;;;;;6.24;100.00;100137.22;5101184;28;20533;-70
2022/11/21 09:54:52;;;;;;;20.95;6.80;;;;;;;6.22;100.00;100131.09;5102018;28;20028;-74
2022/11/21 09:57:21;;;;;;;21.90;6.40;;;;;;;6.15;100.00;100130.13;5097760;28;20485;-78
2022/11/21 09:59:47;;;;;;;20.52;7.03;;;;;;;6.07;100.00;100119.56;5100414;28;20031;-71
2022/11/21 10:02:17;;;;;;;20.83;6.70;;;;;;;6.10;100.00;100116.97;5098091;28;20028;-71
2022/11/21 10:04:47;;;;;;;20.83;6.57;;;;;;;6.28;100.00;100110.13;5100278;28;20050;-77
2022/11/21 10:07:24;;;;;;;20.58;6.28;;;;;;;6.46;100.00;100114.69;5097940;28;20030;-78
2022/11/21 10:10:07;;;;;;;20.33;6.05;;;;;;;6.51;100.00;100118.25;5094692;28;20032;-71
2022/11/21 10:12:43;;;;;;;19.38;5.70;;;;;;;6.65;100.00;100110.47;5099528;28;20356;-67
2022/11/21 10:15:33;;;;;;;20.10;5.97;;;;;;;6.60;100.00;100115.69;5099209;28;20404;-69
2022/11/21 10:18:27;;;;;;;20.83;5.75;;;;;;;6.88;100.00;100108.03;5097165;28;20435;-67
2022/11/21 10:21:23;;;;;;;19.25;6.05;;;;;;;6.93;100.00;100095.81;5099333;28;20096;-67
2022/11/21 10:24:26;;;;;;;18.95;5.60;;;;;;;7.00;100.00;100087.97;5099593;28;20032;-67
2022/11/21 10:27:06;;;;;;;20.80;5.80;;;;;;;7.36;100.00;100078.56;5101547;28;20042;-76
2022/11/21 10:29:40;;;;;;;19.85;5.70;;;;;;;7.47;100.00;100079.47;5099023;28;20031;-69
2022/11/21 10:32:37;;;;;;;20.88;5.45;;;;;;;7.64;100.00;100072.53;5101849;28;20035;-70
2022/11/21 10:35:16;;;;;;;18.90;5.32;;;;;;;7.49;100.00;100067.22;5097092;28;20050;-71
2022/11/21 10:37:48;;;;;;;19.27;5.32;;;;;;;7.21;100.00;100074.09;5105085;28;20040;-76
2022/11/21 10:40:33;;;;;;;;;;;;;;;7.11;100.00;100067.91;5105202;28;20525;-78
2022/11/21 10:45:15;;;;;;;19.88;5.45;;;;;;;7.19;100.00;100063.56;5105797;28;20290;-71
2022/11/21 10:45:51;;;;;;;20.05;5.50;;;;;;;7.64;100.00;100054.13;5103624;28;20039;-78
2022/11/21 10:48:16;;;;;;;21.02;5.20;;;;;;;8.20;100.00;100059.56;5104286;28;20036;-77
2022/11/21 10:51:06;;;;;;;19.15;5.00;;;;;;;8.85;100.00;100054.31;5103652;28;20490;-72
2022/11/21 10:56:21;;;;;;;21.10;4.90;;;;;;;8.59;100.00;100054.34;5102488;28;20496;-74
2022/11/21 10:58:48;;;;;;;19.10;4.72;;;;;;;8.88;100.00;100043.78;5103688;28;20058;-72
2022/11/21 11:01:52;;;;;;;19.23;4.95;;;;;;;9.16;100.00;100038.44;5103776;28;20098;-78
2022/11/21 11:04:18;;;;;;;18.80;4.72;;;;;;;9.70;100.00;100031.22;5102472;28;20086;-76
2022/11/21 11:06:45;;;;;;;17.38;4.53;;;;;;;10.08;100.00;100024.84;5104530;28;20466;-76
2022/11/21 11:09:34;;;;;;;17.08;4.80;;;;;;;10.33;100.00;100029.94;5103026;28;20035;-74
2022/11/21 11:12:17;;;;;;;19.60;4.82;;;;;;;11.56;100.00;100030.50;5098388;28;20031;-76
2022/11/21 11:14:53;;;;;;;18.33;4.50;;;;;;;12.55;100.00;100014.09;5101277;28;20107;-75
2022/11/21 11:17:28;;;;;;;16.80;4.20;;;;;;;12.81;100.00;100015.38;5103449;28;20573;-76
2022/11/21 11:20:25;;;;;;;18.45;4.30;;;;;;;13.23;100.00;100004.00;5104502;28;20111;-77
2022/11/21 11:22:50;;;;;;;15.63;4.07;;;;;;;12.72;100.00;100011.13;5102815;28;20039;-79
2022/11/21 11:25:15;;;;;;;16.85;4.03;;;;;;;12.04;100.00;99990.16;5103728;28;20027;-79
2022/11/21 11:27:41;;;;;;;18.83;4.65;;;;;;;12.16;100.00;99991.75;5102936;28;20036;-75